sensor_id;sensor_type;location;lat;lon;timestamp;pressure;altitude;pressure_sealevel;temperature
69186;BMP280;56298;49.246;9.410;2022-11-10T00:00:02;99783.31;;;12.28
69186;BMP280;56298;49.246;9.410;2022-11-10T00:02:28;99781.28;;;12.25
69186;BMP280;56298;49.246;9.410;2022-11-10T00:04:53;99782.94;;;12.30
69186;BMP280;56298;49.246;9.410;2022-11-10T00:07:23;99787.31;;;12.31
69186;BMP280;56298;49.246;9.410;2022-11-10T00:09:48;99788.19;;;12.35
69186;BMP280;56298;49.246;9.410;2022-11-10T00:12:14;99793.69;;;12.35
69186;BMP280;56298;49.246;9.410;2022-11-10T00:14:39;99797.56;;;12.34
69186;BMP280;56298;49.246;9.410;2022-11-10T00:17:23;99807.06;;;12.36
69186;BMP280;56298;49.246;9.410;2022-11-10T00:19:48;99806.28;;;12.36
69186;BMP280;56298;49.246;9.410;2022-11-10T00:22:13;99814.28;;;12.25
69186;BMP280;56298;49.246;9.410;2022-11-10T00:24:38;99810.91;;;12.16
69186;BMP280;56298;49.246;9.410;2022-11-10T00:27:04;99818.44;;;12.19
69186;BMP280;56298;49.246;9.410;2022-11-10T00:29:29;99823.94;;;12.19
69186;BMP280;56298;49.246;9.410;2022-11-10T00:31:54;99825.53;;;12.20
69186;BMP280;56298;49.246;9.410;2022-11-10T00:34:19;99830.31;;;12.23
69186;BMP280;56298;49.246;9.410;2022-11-10T00:36:45;99827.41;;;12.16
69186;BMP280;56298;49.246;9.410;2022-11-10T00:39:10;99828.53;;;12.15
69186;BMP280;56298;49.246;9.410;2022-11-10T00:41:36;99837.84;;;12.10
69186;BMP280;56298;49.246;9.410;2022-11-10T00:44:01;99837.53;;;11.99
69186;BMP280;56298;49.246;9.410;2022-11-10T00:46:27;99839.78;;;11.93
69186;BMP280;56298;49.246;9.410;2022-11-10T00:48:52;99836.69;;;11.95
69186;BMP280;56298;49.246;9.410;2022-11-10T00:51:25;99833.16;;;11.82
69186;BMP280;56298;49.246;9.410;2022-11-10T00:53:51;99845.22;;;11.77
69186;BMP280;56298;49.246;9.410;2022-11-10T00:56:17;99849.56;;;11.78
69186;BMP280;56298;49.246;9.410;2022-11-10T00:58:43;99851.63;;;11.81
69186;BMP280;56298;49.246;9.410;2022-11-10T01:01:14;99851.56;;;11.94
69186;BMP280;56298;49.246;9.410;2022-11-10T01:03:39;99855.28;;;12.02
69186;BMP280;56298;49.246;9.410;2022-11-10T01:06:13;99858.41;;;12.00
69186;BMP280;56298;49.246;9.410;2022-11-10T01:08:40;99862.50;;;12.06
69186;BMP280;56298;49.246;9.410;2022-11-10T01:11:12;99875.63;;;12.13
69186;BMP280;56298;49.246;9.410;2022-11-10T01:13:37;99872.59;;;12.18
69186;BMP280;56298;49.246;9.410;2022-11-10T01:16:11;99877.75;;;12.20
69186;BMP280;56298;49.246;9.410;2022-11-10T01:18:37;99876.28;;;12.22
69186;BMP280;56298;49.246;9.410;2022-11-10T01:21:03;99877.06;;;12.23
69186;BMP280;56298;49.246;9.410;2022-11-10T01:23:29;99879.91;;;12.26
69186;BMP280;56298;49.246;9.410;2022-11-10T01:25:59;99883.81;;;12.25
69186;BMP280;56298;49.246;9.410;2022-11-10T01:28:25;99891.28;;;12.25
69186;BMP280;56298;49.246;9.410;2022-11-10T01:31:18;99886.34;;;12.18
69186;BMP280;56298;49.246;9.410;2022-11-10T01:33:44;99888.56;;;12.12
69186;BMP280;56298;49.246;9.410;2022-11-10T01:36:10;99894.53;;;12.15
69186;BMP280;56298;49.246;9.410;2022-11-10T01:38:38;99893.66;;;12.10
69186;BMP280;56298;49.246;9.410;2022-11-10T01:41:05;99892.28;;;12.04
69186;BMP280;56298;49.246;9.410;2022-11-10T01:43:31;99892.78;;;11.94
69186;BMP280;56298;49.246;9.410;2022-11-10T01:46:11;99902.81;;;11.74
69186;BMP280;56298;49.246;9.410;2022-11-10T01:48:53;99899.97;;;11.70
69186;BMP280;56298;49.246;9.410;2022-11-10T01:54:13;99907.34;;;11.53
69186;BMP280;56298;49.246;9.410;2022-11-10T01:56:46;99916.72;;;11.52
69186;BMP280;56298;49.246;9.410;2022-11-10T01:59:14;99918.44;;;11.57
69186;BMP280;56298;49.246;9.410;2022-11-10T02:01:43;99913.38;;;11.59
69186;BMP280;56298;49.246;9.410;2022-11-10T02:04:14;99921.63;;;11.59
69186;BMP280;56298;49.246;9.410;2022-11-10T02:06:41;99922.53;;;11.63
69186;BMP280;56298;49.246;9.410;2022-11-10T02:09:07;99917.84;;;11.64
69186;BMP280;56298;49.246;9.410;2022-11-10T02:11:34;99919.78;;;11.63
69186;BMP280;56298;49.246;9.410;2022-11-10T02:14:00;99919.34;;;11.61
69186;BMP280;56298;49.246;9.410;2022-11-10T02:16:26;99919.69;;;11.60
69186;BMP280;56298;49.246;9.410;2022-11-10T02:18:51;99924.91;;;11.65
69186;BMP280;56298;49.246;9.410;2022-11-10T02:21:18;99930.91;;;11.67
69186;BMP280;56298;49.246;9.410;2022-11-10T02:23:48;99940.03;;;11.71
69186;BMP280;56298;49.246;9.410;2022-11-10T02:26:17;99940.59;;;11.77
69186;BMP280;56298;49.246;9.410;2022-11-10T02:28:43;99943.41;;;11.80
69186;BMP280;56298;49.246;9.410;2022-11-10T02:31:09;99945.22;;;11.89
69186;BMP280;56298;49.246;9.410;2022-11-10T02:33:35;99944.91;;;11.90
69186;BMP280;56298;49.246;9.410;2022-11-10T02:36:00;99952.91;;;11.95
69186;BMP280;56298;49.246;9.410;2022-11-10T02:38:25;99957.63;;;11.95
69186;BMP280;56298;49.246;9.410;2022-11-10T02:40:51;99952.81;;;11.92
69186;BMP280;56298;49.246;9.410;2022-11-10T02:43:17;99950.97;;;11.83
69186;BMP280;56298;49.246;9.410;2022-11-10T02:45:43;99963.38;;;11.77
69186;BMP280;56298;49.246;9.410;2022-11-10T02:48:08;99951.81;;;11.59
69186;BMP280;56298;49.246;9.410;2022-11-10T02:50:34;99967.28;;;11.51
69186;BMP280;56298;49.246;9.410;2022-11-10T02:52:59;99966.06;;;11.36
69186;BMP280;56298;49.246;9.410;2022-11-10T02:55:25;99972.47;;;11.28
69186;BMP280;56298;49.246;9.410;2022-11-10T02:57:53;99975.31;;;11.19
69186;BMP280;56298;49.246;9.410;2022-11-10T03:00:18;99972.38;;;11.24
69186;BMP280;56298;49.246;9.410;2022-11-10T03:02:43;99974.97;;;11.21
69186;BMP280;56298;49.246;9.410;2022-11-10T03:05:09;99984.59;;;11.15
69186;BMP280;56298;49.246;9.410;2022-11-10T03:07:34;99977.63;;;11.17
69186;BMP280;56298;49.246;9.410;2022-11-10T03:09:59;99985.75;;;11.13
69186;BMP280;56298;49.246;9.410;2022-11-10T03:12:25;99989.75;;;11.16
69186;BMP280;56298;49.246;9.410;2022-11-10T03:14:50;99991.38;;;11.30
69186;BMP280;56298;49.246;9.410;2022-11-10T03:17:15;99991.25;;;11.38
69186;BMP280;56298;49.246;9.410;2022-11-10T03:19:40;99999.72;;;11.46
69186;BMP280;56298;49.246;9.410;2022-11-10T03:22:06;99991.13;;;11.47
69186;BMP280;56298;49.246;9.410;2022-11-10T03:24:31;99993.28;;;11.41
69186;BMP280;56298;49.246;9.410;2022-11-10T03:26:56;100002.91;;;11.48
69186;BMP280;56298;49.246;9.410;2022-11-10T03:29:21;100004.06;;;11.47
69186;BMP280;56298;49.246;9.410;2022-11-10T03:31:47;99997.31;;;11.44
69186;BMP280;56298;49.246;9.410;2022-11-10T03:34:12;100003.50;;;11.41
69186;BMP280;56298;49.246;9.410;2022-11-10T03:36:37;100003.13;;;11.30
69186;BMP280;56298;49.246;9.410;2022-11-10T03:39:02;100008.16;;;11.40
69186;BMP280;56298;49.246;9.410;2022-11-10T03:41:28;100009.53;;;11.34
69186;BMP280;56298;49.246;9.410;2022-11-10T03:43:53;100006.44;;;11.36
69186;BMP280;56298;49.246;9.410;2022-11-10T03:46:18;100011.03;;;11.44
69186;BMP280;56298;49.246;9.410;2022-11-10T03:48:44;100013.09;;;11.47
69186;BMP280;56298;49.246;9.410;2022-11-10T03:51:10;100016.19;;;11.46
69186;BMP280;56298;49.246;9.410;2022-11-10T03:53:35;100019.81;;;11.50
69186;BMP280;56298;49.246;9.410;2022-11-10T03:56:01;100027.31;;;11.49
69186;BMP280;56298;49.246;9.410;2022-11-10T03:58:27;100029.69;;;11.51
69186;BMP280;56298;49.246;9.410;2022-11-10T04:00:53;100037.81;;;11.47
69186;BMP280;56298;49.246;9.410;2022-11-10T04:03:18;100033.00;;;11.44
69186;BMP280;56298;49.246;9.410;2022-11-10T04:05:43;100044.00;;;11.44
69186;BMP280;56298;49.246;9.410;2022-11-10T04:08:27;100049.81;;;11.30
69186;BMP280;56298;49.246;9.410;2022-11-10T04:11:11;100050.84;;;11.38
69186;BMP280;56298;49.246;9.410;2022-11-10T04:13:36;100049.47;;;11.44
69186;BMP280;56298;49.246;9.410;2022-11-10T04:16:20;100053.50;;;11.47
69186;BMP280;56298;49.246;9.410;2022-11-10T04:18:45;100069.25;;;11.50
69186;BMP280;56298;49.246;9.410;2022-11-10T04:21:11;100054.53;;;11.54
69186;BMP280;56298;49.246;9.410;2022-11-10T04:23:36;100062.31;;;11.40
69186;BMP280;56298;49.246;9.410;2022-11-10T04:26:11;100068.25;;;11.30
69186;BMP280;56298;49.246;9.410;2022-11-10T04:28:57;100068.69;;;11.32
69186;BMP280;56298;49.246;9.410;2022-11-10T04:31:23;100079.06;;;11.26
69186;BMP280;56298;49.246;9.410;2022-11-10T04:33:49;100087.69;;;11.24
69186;BMP280;56298;49.246;9.410;2022-11-10T04:36:17;100098.19;;;11.22
69186;BMP280;56298;49.246;9.410;2022-11-10T04:38:43;100090.63;;;11.19
69186;BMP280;56298;49.246;9.410;2022-11-10T04:41:09;100088.44;;;11.12
69186;BMP280;56298;49.246;9.410;2022-11-10T04:43:34;100094.50;;;11.06
69186;BMP280;56298;49.246;9.410;2022-11-10T04:46:01;100091.53;;;11.11
69186;BMP280;56298;49.246;9.410;2022-11-10T04:48:27;100096.34;;;11.14
69186;BMP280;56298;49.246;9.410;2022-11-10T04:50:52;100100.72;;;11.15
69186;BMP280;56298;49.246;9.410;2022-11-10T04:53:18;100103.22;;;11.20
69186;BMP280;56298;49.246;9.410;2022-11-10T04:55:44;100123.72;;;11.23
69186;BMP280;56298;49.246;9.410;2022-11-10T04:58:11;100129.31;;;11.26
69186;BMP280;56298;49.246;9.410;2022-11-10T05:00:37;100126.56;;;11.26
69186;BMP280;56298;49.246;9.410;2022-11-10T05:03:05;100132.28;;;11.21
69186;BMP280;56298;49.246;9.410;2022-11-10T05:05:31;100133.88;;;11.22
69186;BMP280;56298;49.246;9.410;2022-11-10T05:07:57;100137.28;;;11.19
69186;BMP280;56298;49.246;9.410;2022-11-10T05:10:23;100147.84;;;11.17
69186;BMP280;56298;49.246;9.410;2022-11-10T05:12:52;100149.03;;;11.07
69186;BMP280;56298;49.246;9.410;2022-11-10T05:15:18;100148.16;;;11.16
69186;BMP280;56298;49.246;9.410;2022-11-10T05:17:47;100153.19;;;11.13
69186;BMP280;56298;49.246;9.410;2022-11-10T05:20:12;100149.63;;;11.13
69186;BMP280;56298;49.246;9.410;2022-11-10T05:22:37;100153.97;;;11.14
69186;BMP280;56298;49.246;9.410;2022-11-10T05:25:03;100154.88;;;11.06
69186;BMP280;56298;49.246;9.410;2022-11-10T05:27:28;100148.31;;;10.98
69186;BMP280;56298;49.246;9.410;2022-11-10T05:29:54;100153.81;;;10.98
69186;BMP280;56298;49.246;9.410;2022-11-10T05:32:19;100157.78;;;10.88
69186;BMP280;56298;49.246;9.410;2022-11-10T05:34:44;100157.09;;;10.91
69186;BMP280;56298;49.246;9.410;2022-11-10T05:37:10;100155.50;;;10.90
69186;BMP280;56298;49.246;9.410;2022-11-10T05:39:35;100155.09;;;10.79
69186;BMP280;56298;49.246;9.410;2022-11-10T05:42:00;100160.31;;;10.72
69186;BMP280;56298;49.246;9.410;2022-11-10T05:44:25;100163.47;;;10.62
69186;BMP280;56298;49.246;9.410;2022-11-10T05:46:51;100168.53;;;10.51
69186;BMP280;56298;49.246;9.410;2022-11-10T05:49:16;100173.72;;;10.43
69186;BMP280;56298;49.246;9.410;2022-11-10T05:51:41;100179.09;;;10.40
69186;BMP280;56298;49.246;9.410;2022-11-10T05:54:06;100195.06;;;10.38
69186;BMP280;56298;49.246;9.410;2022-11-10T05:56:32;100202.28;;;10.42
69186;BMP280;56298;49.246;9.410;2022-11-10T05:58:58;100203.78;;;10.40
69186;BMP280;56298;49.246;9.410;2022-11-10T06:01:23;100206.50;;;10.40
69186;BMP280;56298;49.246;9.410;2022-11-10T06:03:48;100212.63;;;10.37
69186;BMP280;56298;49.246;9.410;2022-11-10T06:06:13;100210.91;;;10.32
69186;BMP280;56298;49.246;9.410;2022-11-10T06:08:39;100205.44;;;10.32
69186;BMP280;56298;49.246;9.410;2022-11-10T06:11:04;100216.06;;;10.25
69186;BMP280;56298;49.246;9.410;2022-11-10T06:13:29;100214.03;;;10.22
69186;BMP280;56298;49.246;9.410;2022-11-10T06:15:55;100222.38;;;10.25
69186;BMP280;56298;49.246;9.410;2022-11-10T06:18:20;100239.97;;;10.15
69186;BMP280;56298;49.246;9.410;2022-11-10T06:20:46;100245.19;;;10.08
69186;BMP280;56298;49.246;9.410;2022-11-10T06:23:12;100251.31;;;10.14
69186;BMP280;56298;49.246;9.410;2022-11-10T06:25:39;100254.66;;;10.20
69186;BMP280;56298;49.246;9.410;2022-11-10T06:28:06;100255.94;;;10.22
69186;BMP280;56298;49.246;9.410;2022-11-10T06:30:33;100267.19;;;10.29
69186;BMP280;56298;49.246;9.410;2022-11-10T06:32:59;100268.28;;;10.37
69186;BMP280;56298;49.246;9.410;2022-11-10T06:35:25;100280.41;;;10.36
69186;BMP280;56298;49.246;9.410;2022-11-10T06:38:08;100292.41;;;10.53
69186;BMP280;56298;49.246;9.410;2022-11-10T06:40:33;100294.97;;;10.58
69186;BMP280;56298;49.246;9.410;2022-11-10T06:43:00;100302.41;;;10.57
69186;BMP280;56298;49.246;9.410;2022-11-10T06:45:26;100305.09;;;10.66
69186;BMP280;56298;49.246;9.410;2022-11-10T06:48:11;100314.94;;;10.67
69186;BMP280;56298;49.246;9.410;2022-11-10T06:50:37;100321.88;;;10.65
69186;BMP280;56298;49.246;9.410;2022-11-10T06:53:03;100332.38;;;10.63
69186;BMP280;56298;49.246;9.410;2022-11-10T06:55:29;100339.63;;;10.67
69186;BMP280;56298;49.246;9.410;2022-11-10T06:57:54;100354.81;;;10.65
69186;BMP280;56298;49.246;9.410;2022-11-10T07:00:20;100362.25;;;10.64
69186;BMP280;56298;49.246;9.410;2022-11-10T07:02:45;100357.22;;;10.75
69186;BMP280;56298;49.246;9.410;2022-11-10T07:05:10;100360.22;;;10.82
69186;BMP280;56298;49.246;9.410;2022-11-10T07:07:36;100360.84;;;10.88
69186;BMP280;56298;49.246;9.410;2022-11-10T07:10:01;100353.84;;;10.99
69186;BMP280;56298;49.246;9.410;2022-11-10T07:12:26;100354.78;;;11.04
69186;BMP280;56298;49.246;9.410;2022-11-10T07:14:52;100354.72;;;11.12
69186;BMP280;56298;49.246;9.410;2022-11-10T07:17:17;100360.63;;;11.23
69186;BMP280;56298;49.246;9.410;2022-11-10T07:19:42;100369.47;;;11.29
69186;BMP280;56298;49.246;9.410;2022-11-10T07:22:07;100368.41;;;11.43
69186;BMP280;56298;49.246;9.410;2022-11-10T07:24:33;100372.56;;;11.49
69186;BMP280;56298;49.246;9.410;2022-11-10T07:26:58;100379.22;;;11.48
69186;BMP280;56298;49.246;9.410;2022-11-10T07:29:24;100381.00;;;11.44
69186;BMP280;56298;49.246;9.410;2022-11-10T07:31:50;100382.41;;;11.50
69186;BMP280;56298;49.246;9.410;2022-11-10T07:34:15;100390.28;;;11.60
69186;BMP280;56298;49.246;9.410;2022-11-10T07:36:40;100395.56;;;11.44
69186;BMP280;56298;49.246;9.410;2022-11-10T07:39:06;100393.88;;;11.52
69186;BMP280;56298;49.246;9.410;2022-11-10T07:41:31;100399.84;;;11.54
69186;BMP280;56298;49.246;9.410;2022-11-10T07:43:57;100406.16;;;11.54
69186;BMP280;56298;49.246;9.410;2022-11-10T07:46:22;100403.88;;;11.57
69186;BMP280;56298;49.246;9.410;2022-11-10T07:48:47;100406.06;;;11.63
69186;BMP280;56298;49.246;9.410;2022-11-10T07:51:13;100406.91;;;11.64
69186;BMP280;56298;49.246;9.410;2022-11-10T07:53:38;100413.84;;;11.61
69186;BMP280;56298;49.246;9.410;2022-11-10T07:56:05;100416.72;;;11.65
69186;BMP280;56298;49.246;9.410;2022-11-10T07:58:31;100421.25;;;11.69
69186;BMP280;56298;49.246;9.410;2022-11-10T08:00:57;100425.44;;;11.88
69186;BMP280;56298;49.246;9.410;2022-11-10T08:03:22;100428.97;;;12.10
69186;BMP280;56298;49.246;9.410;2022-11-10T08:05:47;100427.78;;;12.32
69186;BMP280;56298;49.246;9.410;2022-11-10T08:08:13;100435.19;;;12.53
69186;BMP280;56298;49.246;9.410;2022-11-10T08:10:39;100439.47;;;12.88
69186;BMP280;56298;49.246;9.410;2022-11-10T08:13:07;100437.50;;;12.88
69186;BMP280;56298;49.246;9.410;2022-11-10T08:15:33;100447.47;;;13.30
69186;BMP280;56298;49.246;9.410;2022-11-10T08:18:04;100447.09;;;13.44
69186;BMP280;56298;49.246;9.410;2022-11-10T08:20:30;100446.41;;;13.47
69186;BMP280;56298;49.246;9.410;2022-11-10T08:23:01;100446.31;;;13.72
69186;BMP280;56298;49.246;9.410;2022-11-10T08:25:28;100450.94;;;13.68
69186;BMP280;56298;49.246;9.410;2022-11-10T08:28:02;100460.44;;;13.83
69186;BMP280;56298;49.246;9.410;2022-11-10T08:30:28;100471.09;;;13.85
69186;BMP280;56298;49.246;9.410;2022-11-10T08:32:58;100464.38;;;13.70
69186;BMP280;56298;49.246;9.410;2022-11-10T08:35:25;100472.22;;;13.55
69186;BMP280;56298;49.246;9.410;2022-11-10T08:37:56;100462.22;;;13.63
69186;BMP280;56298;49.246;9.410;2022-11-10T08:40:23;100463.97;;;13.43
69186;BMP280;56298;49.246;9.410;2022-11-10T08:42:58;100468.75;;;13.58
69186;BMP280;56298;49.246;9.410;2022-11-10T08:45:24;100472.31;;;13.59
69186;BMP280;56298;49.246;9.410;2022-11-10T08:48:00;100481.19;;;13.64
69186;BMP280;56298;49.246;9.410;2022-11-10T08:50:26;100485.41;;;13.74
69186;BMP280;56298;49.246;9.410;2022-11-10T08:52:52;100482.97;;;13.73
69186;BMP280;56298;49.246;9.410;2022-11-10T08:55:17;100493.91;;;13.69
69186;BMP280;56298;49.246;9.410;2022-11-10T08:57:44;100492.25;;;13.80
69186;BMP280;56298;49.246;9.410;2022-11-10T09:00:11;100497.31;;;13.78
69186;BMP280;56298;49.246;9.410;2022-11-10T09:02:36;100497.63;;;13.89
69186;BMP280;56298;49.246;9.410;2022-11-10T09:05:01;100501.38;;;14.09
69186;BMP280;56298;49.246;9.410;2022-11-10T09:07:27;100501.28;;;13.93
69186;BMP280;56298;49.246;9.410;2022-11-10T09:09:52;100505.84;;;14.14
69186;BMP280;56298;49.246;9.410;2022-11-10T09:12:17;100509.09;;;14.04
69186;BMP280;56298;49.246;9.410;2022-11-10T09:14:42;100513.09;;;14.35
69186;BMP280;56298;49.246;9.410;2022-11-10T09:17:08;100513.00;;;14.31
69186;BMP280;56298;49.246;9.410;2022-11-10T09:19:33;100514.78;;;14.11
69186;BMP280;56298;49.246;9.410;2022-11-10T09:21:58;100523.00;;;14.07
69186;BMP280;56298;49.246;9.410;2022-11-10T09:24:23;100530.78;;;14.05
69186;BMP280;56298;49.246;9.410;2022-11-10T09:26:49;100534.97;;;13.87
69186;BMP280;56298;49.246;9.410;2022-11-10T09:29:14;100532.00;;;13.79
69186;BMP280;56298;49.246;9.410;2022-11-10T09:31:42;100543.75;;;13.76
69186;BMP280;56298;49.246;9.410;2022-11-10T09:34:09;100546.56;;;13.92
69186;BMP280;56298;49.246;9.410;2022-11-10T09:36:34;100543.09;;;14.08
69186;BMP280;56298;49.246;9.410;2022-11-10T09:38:59;100541.22;;;14.12
69186;BMP280;56298;49.246;9.410;2022-11-10T09:41:25;100550.81;;;14.02
69186;BMP280;56298;49.246;9.410;2022-11-10T09:46:41;100555.25;;;14.19
69186;BMP280;56298;49.246;9.410;2022-11-10T09:49:27;100556.88;;;14.08
69186;BMP280;56298;49.246;9.410;2022-11-10T09:51:56;100559.34;;;13.97
69186;BMP280;56298;49.246;9.410;2022-11-10T09:54:46;100562.50;;;14.12
69186;BMP280;56298;49.246;9.410;2022-11-10T09:57:16;100560.56;;;14.41
69186;BMP280;56298;49.246;9.410;2022-11-10T09:59:43;100570.00;;;14.39
69186;BMP280;56298;49.246;9.410;2022-11-10T10:02:52;100567.50;;;14.34
69186;BMP280;56298;49.246;9.410;2022-11-10T10:08:05;100568.69;;;14.21
69186;BMP280;56298;49.246;9.410;2022-11-10T10:10:48;100568.28;;;14.06
69186;BMP280;56298;49.246;9.410;2022-11-10T10:16:39;100574.25;;;14.08
69186;BMP280;56298;49.246;9.410;2022-11-10T10:19:15;100569.75;;;14.04
69186;BMP280;56298;49.246;9.410;2022-11-10T10:22:24;100586.56;;;14.39
69186;BMP280;56298;49.246;9.410;2022-11-10T10:24:53;100575.06;;;14.82
69186;BMP280;56298;49.246;9.410;2022-11-10T10:27:25;100572.59;;;15.09
69186;BMP280;56298;49.246;9.410;2022-11-10T10:29:51;100581.66;;;15.42
69186;BMP280;56298;49.246;9.410;2022-11-10T10:32:18;100571.47;;;15.62
69186;BMP280;56298;49.246;9.410;2022-11-10T10:34:44;100572.06;;;15.91
69186;BMP280;56298;49.246;9.410;2022-11-10T10:40:17;100563.09;;;16.37
69186;BMP280;56298;49.246;9.410;2022-11-10T10:42:43;100563.50;;;16.16
69186;BMP280;56298;49.246;9.410;2022-11-10T10:45:23;100563.00;;;16.30
69186;BMP280;56298;49.246;9.410;2022-11-10T10:47:51;100558.16;;;16.26
69186;BMP280;56298;49.246;9.410;2022-11-10T10:50:34;100560.50;;;16.44
69186;BMP280;56298;49.246;9.410;2022-11-10T10:55:32;100571.81;;;17.32
69186;BMP280;56298;49.246;9.410;2022-11-10T10:58:00;100560.06;;;17.69
69186;BMP280;56298;49.246;9.410;2022-11-10T11:00:26;100559.50;;;17.87
69186;BMP280;56298;49.246;9.410;2022-11-10T11:03:04;100562.56;;;18.12
69186;BMP280;56298;49.246;9.410;2022-11-10T11:05:29;100553.94;;;17.87
69186;BMP280;56298;49.246;9.410;2022-11-10T11:07:59;100554.31;;;17.55
69186;BMP280;56298;49.246;9.410;2022-11-10T11:10:30;100556.53;;;17.15
69186;BMP280;56298;49.246;9.410;2022-11-10T11:13:12;100551.38;;;16.90
69186;BMP280;56298;49.246;9.410;2022-11-10T11:15:38;100548.28;;;16.95
69186;BMP280;56298;49.246;9.410;2022-11-10T11:18:12;100542.38;;;16.97
69186;BMP280;56298;49.246;9.410;2022-11-10T11:26:22;100554.19;;;17.17
69186;BMP280;56298;49.246;9.410;2022-11-10T11:29:28;100556.31;;;17.27
69186;BMP280;56298;49.246;9.410;2022-11-10T11:34:39;100563.00;;;17.53
69186;BMP280;56298;49.246;9.410;2022-11-10T11:37:19;100557.44;;;17.53
69186;BMP280;56298;49.246;9.410;2022-11-10T11:39:47;100574.88;;;17.50
69186;BMP280;56298;49.246;9.410;2022-11-10T11:45:06;100564.06;;;16.91
69186;BMP280;56298;49.246;9.410;2022-11-10T11:47:42;100561.09;;;16.80
69186;BMP280;56298;49.246;9.410;2022-11-10T11:50:44;100562.84;;;16.65
69186;BMP280;56298;49.246;9.410;2022-11-10T11:56:30;100565.66;;;16.69
69186;BMP280;56298;49.246;9.410;2022-11-10T11:59:07;100558.78;;;16.82
69186;BMP280;56298;49.246;9.410;2022-11-10T12:07:33;100565.47;;;17.05
69186;BMP280;56298;49.246;9.410;2022-11-10T12:15:53;100562.81;;;17.39
69186;BMP280;56298;49.246;9.410;2022-11-10T12:18:32;100564.78;;;17.11
69186;BMP280;56298;49.246;9.410;2022-11-10T12:21:13;100564.53;;;16.93
69186;BMP280;56298;49.246;9.410;2022-11-10T12:23:58;100565.91;;;17.07
69186;BMP280;56298;49.246;9.410;2022-11-10T12:26:39;100563.97;;;17.11
69186;BMP280;56298;49.246;9.410;2022-11-10T12:29:21;100565.81;;;17.26
69186;BMP280;56298;49.246;9.410;2022-11-10T12:31:52;100560.66;;;17.25
69186;BMP280;56298;49.246;9.410;2022-11-10T12:34:31;100551.63;;;17.32
69186;BMP280;56298;49.246;9.410;2022-11-10T12:37:02;100560.38;;;17.07
69186;BMP280;56298;49.246;9.410;2022-11-10T12:39:57;100561.75;;;16.93
69186;BMP280;56298;49.246;9.410;2022-11-10T12:42:23;100564.38;;;16.86
69186;BMP280;56298;49.246;9.410;2022-11-10T12:45:02;100565.16;;;16.63
69186;BMP280;56298;49.246;9.410;2022-11-10T12:47:32;100571.16;;;16.65
69186;BMP280;56298;49.246;9.410;2022-11-10T12:50:17;100567.09;;;16.82
69186;BMP280;56298;49.246;9.410;2022-11-10T12:55:20;100575.41;;;16.82
69186;BMP280;56298;49.246;9.410;2022-11-10T12:57:49;100569.91;;;16.86
69186;BMP280;56298;49.246;9.410;2022-11-10T13:02:51;100569.84;;;16.59
69186;BMP280;56298;49.246;9.410;2022-11-10T13:05:28;100568.19;;;16.54
69186;BMP280;56298;49.246;9.410;2022-11-10T13:10:49;100574.81;;;16.50
69186;BMP280;56298;49.246;9.410;2022-11-10T13:13:15;100571.75;;;16.35
69186;BMP280;56298;49.246;9.410;2022-11-10T13:15:45;100585.34;;;16.40
69186;BMP280;56298;49.246;9.410;2022-11-10T13:19:06;100575.00;;;16.37
69186;BMP280;56298;49.246;9.410;2022-11-10T13:21:06;100576.75;;;16.26
69186;BMP280;56298;49.246;9.410;2022-11-10T13:26:11;100588.34;;;16.12
69186;BMP280;56298;49.246;9.410;2022-11-10T13:28:56;100592.03;;;16.20
69186;BMP280;56298;49.246;9.410;2022-11-10T13:34:10;100597.69;;;16.07
69186;BMP280;56298;49.246;9.410;2022-11-10T13:41:45;100597.66;;;15.68
69186;BMP280;56298;49.246;9.410;2022-11-10T13:44:26;100599.00;;;15.58
69186;BMP280;56298;49.246;9.410;2022-11-10T13:49:53;100613.38;;;15.64
69186;BMP280;56298;49.246;9.410;2022-11-10T13:58:04;100612.25;;;15.49
69186;BMP280;56298;49.246;9.410;2022-11-10T14:00:32;100604.69;;;15.30
69186;BMP280;56298;49.246;9.410;2022-11-10T14:03:05;100612.44;;;15.24
69186;BMP280;56298;49.246;9.410;2022-11-10T14:08:02;100608.06;;;15.23
69186;BMP280;56298;49.246;9.410;2022-11-10T14:10:53;100609.06;;;15.31
69186;BMP280;56298;49.246;9.410;2022-11-10T14:13:42;100605.47;;;15.30
69186;BMP280;56298;49.246;9.410;2022-11-10T14:16:20;100606.97;;;15.28
69186;BMP280;56298;49.246;9.410;2022-11-10T14:21:22;100621.34;;;15.17
69186;BMP280;56298;49.246;9.410;2022-11-10T14:24:02;100625.19;;;15.13
69186;BMP280;56298;49.246;9.410;2022-11-10T14:26:34;100626.16;;;15.04
69186;BMP280;56298;49.246;9.410;2022-11-10T14:29:37;100630.84;;;15.04
69186;BMP280;56298;49.246;9.410;2022-11-10T14:32:13;100638.00;;;15.05
69186;BMP280;56298;49.246;9.410;2022-11-10T14:34:47;100636.22;;;14.96
69186;BMP280;56298;49.246;9.410;2022-11-10T14:37:19;100640.63;;;14.85
69186;BMP280;56298;49.246;9.410;2022-11-10T14:39:45;100648.16;;;14.85
69186;BMP280;56298;49.246;9.410;2022-11-10T14:42:13;100650.59;;;14.74
69186;BMP280;56298;49.246;9.410;2022-11-10T14:44:38;100652.13;;;14.71
69186;BMP280;56298;49.246;9.410;2022-11-10T14:49:45;100652.41;;;14.53
69186;BMP280;56298;49.246;9.410;2022-11-10T14:52:11;100653.47;;;14.49
69186;BMP280;56298;49.246;9.410;2022-11-10T14:54:37;100654.41;;;14.41
69186;BMP280;56298;49.246;9.410;2022-11-10T14:57:04;100660.78;;;14.29
69186;BMP280;56298;49.246;9.410;2022-11-10T14:59:29;100656.03;;;14.29
69186;BMP280;56298;49.246;9.410;2022-11-10T15:01:57;100655.34;;;14.20
69186;BMP280;56298;49.246;9.410;2022-11-10T15:04:29;100655.94;;;14.13
69186;BMP280;56298;49.246;9.410;2022-11-10T15:06:56;100658.63;;;14.09
69186;BMP280;56298;49.246;9.410;2022-11-10T15:09:30;100659.88;;;14.00
69186;BMP280;56298;49.246;9.410;2022-11-10T15:19:37;100657.63;;;13.77
69186;BMP280;56298;49.246;9.410;2022-11-10T15:22:16;100663.13;;;13.64
69186;BMP280;56298;49.246;9.410;2022-11-10T15:24:43;100674.81;;;13.61
69186;BMP280;56298;49.246;9.410;2022-11-10T15:27:27;100684.13;;;13.57
69186;BMP280;56298;49.246;9.410;2022-11-10T15:29:54;100670.22;;;13.53
69186;BMP280;56298;49.246;9.410;2022-11-10T15:32:21;100673.41;;;13.43
69186;BMP280;56298;49.246;9.410;2022-11-10T15:34:49;100675.13;;;13.35